createdAt,value
2023-02-19T00:00:06.697Z,97961.44
2023-02-19T00:02:57.130Z,97970.50
2023-02-19T00:05:25.485Z,97959.66
2023-02-19T00:07:55.874Z,97963.41
2023-02-19T00:10:24.275Z,97967.81
2023-02-19T00:12:53.279Z,97950.81
2023-02-19T00:15:21.719Z,97953.78
2023-02-19T00:17:50.288Z,97954.72
2023-02-19T00:20:19.169Z,97956.72
2023-02-19T00:22:47.676Z,97955.41
2023-02-19T00:25:17.963Z,97955.28
2023-02-19T00:27:46.573Z,97947.69
2023-02-19T00:30:15.450Z,97953.28
2023-02-19T00:32:44.159Z,97947.13
2023-02-19T00:35:12.772Z,97961.06
2023-02-19T00:37:41.525Z,97942.22
2023-02-19T00:40:10.822Z,97947.44
2023-02-19T00:42:41.277Z,97943.38
2023-02-19T00:45:10.151Z,97945.81
2023-02-19T00:47:39.008Z,97948.50
2023-02-19T00:50:07.553Z,97945.94
2023-02-19T00:52:37.562Z,97942.75
2023-02-19T00:55:06.667Z,97942.63
2023-02-19T00:57:35.094Z,97940.91
2023-02-19T01:00:06.886Z,97945.69
2023-02-19T01:02:35.637Z,97946.63
2023-02-19T01:05:05.859Z,97937.38
2023-02-19T01:07:36.828Z,97943.50
2023-02-19T01:10:05.756Z,97938.78
2023-02-19T01:12:34.616Z,97941.56
2023-02-19T01:15:04.983Z,97931.28
2023-02-19T01:17:33.625Z,97935.31
2023-02-19T01:20:01.939Z,97919.97
2023-02-19T01:22:30.989Z,97921.25
2023-02-19T01:24:59.170Z,97931.91
2023-02-19T01:27:27.983Z,97927.25
2023-02-19T01:29:56.176Z,97921.78
2023-02-19T01:32:26.355Z,97914.63
2023-02-19T01:34:54.521Z,97911.94
2023-02-19T01:37:22.963Z,97914.75
2023-02-19T01:39:51.601Z,97915.09
2023-02-19T01:42:20.157Z,97911.31
2023-02-19T01:45:25.253Z,97902.44
2023-02-19T01:48:00.745Z,97897.84
2023-02-19T01:50:31.493Z,97899.72
2023-02-19T01:53:00.960Z,97894.84
2023-02-19T01:55:29.460Z,97890.94
2023-02-19T01:57:58.021Z,97881.41
2023-02-19T02:00:27.038Z,97886.41
2023-02-19T02:02:58.262Z,97872.41
2023-02-19T02:05:36.651Z,97876.50
2023-02-19T02:08:23.457Z,97881.97
2023-02-19T02:10:52.646Z,97868.75
2023-02-19T02:13:21.198Z,97870.28
2023-02-19T02:15:54.609Z,97866.22
2023-02-19T02:18:35.748Z,97858.97
2023-02-19T02:21:44.655Z,97862.19
2023-02-19T02:24:22.977Z,97860.13
2023-02-19T02:26:59.954Z,97854.75
2023-02-19T02:29:57.290Z,97857.56
2023-02-19T02:32:28.583Z,97854.13
2023-02-19T02:35:01.359Z,97846.69
2023-02-19T02:37:32.045Z,97847.97
2023-02-19T02:40:00.780Z,97850.09
2023-02-19T02:42:29.307Z,97848.50
2023-02-19T02:45:26.300Z,97840.16
2023-02-19T02:47:56.236Z,97844.06
2023-02-19T02:50:27.735Z,97840.44
2023-02-19T02:53:18.212Z,97840.66
2023-02-19T02:55:49.877Z,97843.47
2023-02-19T02:58:18.046Z,97828.94
2023-02-19T03:01:10.563Z,97826.16
2023-02-19T03:03:40.056Z,97823.38
2023-02-19T03:06:09.692Z,97824.78
2023-02-19T03:08:40.912Z,97822.75
2023-02-19T03:11:29.241Z,97820.69
2023-02-19T03:14:18.598Z,97816.25
2023-02-19T03:17:07.449Z,97832.66
2023-02-19T03:19:38.677Z,97830.59
2023-02-19T03:22:10.974Z,97837.53
2023-02-19T03:24:59.828Z,97844.72
2023-02-19T03:27:30.771Z,97834.44
2023-02-19T03:30:00.491Z,97834.50
2023-02-19T03:32:32.834Z,97838.13
2023-02-19T03:35:03.190Z,97833.16
2023-02-19T03:37:40.896Z,97837.41
2023-02-19T03:40:10.243Z,97832.22
2023-02-19T03:42:45.110Z,97831.38
2023-02-19T03:45:36.492Z,97836.53
2023-02-19T03:48:33.115Z,97830.88
2023-02-19T03:51:18.558Z,97827.44
2023-02-19T03:53:53.901Z,97824.97
2023-02-19T03:56:28.064Z,97827.31
2023-02-19T03:58:59.199Z,97828.13
2023-02-19T04:01:31.639Z,97813.63
2023-02-19T04:04:05.244Z,97807.56
2023-02-19T04:06:34.361Z,97818.31
2023-02-19T04:09:05.067Z,97799.94
2023-02-19T04:11:33.927Z,97811.00
2023-02-19T04:14:05.758Z,97818.31
2023-02-19T04:16:35.685Z,97804.72
2023-02-19T04:19:07.991Z,97802.94
2023-02-19T04:21:36.842Z,97811.44
2023-02-19T04:24:10.409Z,97802.72
2023-02-19T04:26:38.671Z,97807.84
2023-02-19T04:29:07.386Z,97806.75
2023-02-19T04:31:36.991Z,97805.97
2023-02-19T04:34:06.919Z,97803.63
2023-02-19T04:36:35.226Z,97799.44
2023-02-19T04:39:03.955Z,97787.91
2023-02-19T04:41:32.086Z,97781.19
2023-02-19T04:44:00.697Z,97789.31
2023-02-19T04:46:29.121Z,97776.53
2023-02-19T04:48:57.830Z,97766.31
2023-02-19T04:51:27.802Z,97769.38
2023-02-19T04:53:56.867Z,97767.81
2023-02-19T04:56:25.222Z,97760.41
2023-02-19T04:58:53.916Z,97753.25
2023-02-19T05:01:22.249Z,97749.03
2023-02-19T05:03:50.915Z,97741.16
2023-02-19T05:06:20.071Z,97726.66
2023-02-19T05:08:50.231Z,97732.88
2023-02-19T05:11:18.641Z,97727.47
2023-02-19T05:13:47.169Z,97721.47
2023-02-19T05:16:17.284Z,97727.25
2023-02-19T05:18:47.283Z,97727.41
2023-02-19T05:21:16.026Z,97721.28
2023-02-19T05:23:44.793Z,97715.84
2023-02-19T05:26:18.107Z,97713.34
2023-02-19T05:28:47.520Z,97705.50
2023-02-19T05:31:16.381Z,97711.56
2023-02-19T05:33:48.272Z,97715.03
2023-02-19T05:36:16.462Z,97716.66
2023-02-19T05:38:44.930Z,97724.66
2023-02-19T05:41:16.642Z,97724.53
2023-02-19T05:43:46.753Z,97723.03
2023-02-19T05:46:16.764Z,97724.56
2023-02-19T05:48:45.541Z,97732.56
2023-02-19T05:51:15.552Z,97729.31
2023-02-19T05:53:45.157Z,97728.03
2023-02-19T05:56:29.634Z,97718.19
2023-02-19T05:58:58.458Z,97725.34
2023-02-19T06:01:28.719Z,97722.13
2023-02-19T06:03:57.965Z,97721.47
2023-02-19T06:06:27.267Z,97716.91
2023-02-19T06:08:56.096Z,97713.50
2023-02-19T06:11:26.525Z,97712.91
2023-02-19T06:13:55.103Z,97727.03
2023-02-19T06:16:24.531Z,97721.91
2023-02-19T06:18:53.417Z,97722.94
2023-02-19T06:21:21.942Z,97727.16
2023-02-19T06:23:50.531Z,97727.81
2023-02-19T06:26:21.033Z,97727.41
2023-02-19T06:28:52.305Z,97713.72
2023-02-19T06:31:22.133Z,97726.38
2023-02-19T06:33:51.673Z,97722.91
2023-02-19T06:36:24.434Z,97720.97
2023-02-19T06:38:53.306Z,97720.59
2023-02-19T06:41:21.510Z,97724.97
2023-02-19T06:43:51.409Z,97707.72
2023-02-19T06:46:19.751Z,97721.09
2023-02-19T06:48:48.522Z,97710.03
2023-02-19T06:51:19.841Z,97702.69
2023-02-19T06:53:48.377Z,97701.16
2023-02-19T06:56:25.502Z,97690.31
2023-02-19T06:58:57.076Z,97704.38
2023-02-19T07:01:25.388Z,97694.44
2023-02-19T07:03:54.196Z,97692.81
2023-02-19T07:06:23.472Z,97691.84
2023-02-19T07:08:52.977Z,97692.19
2023-02-19T07:11:21.295Z,97698.34
2023-02-19T07:13:49.751Z,97695.03
2023-02-19T07:16:19.635Z,97696.69
2023-02-19T07:18:48.173Z,97710.84
2023-02-19T07:21:17.937Z,97689.91
2023-02-19T07:23:47.242Z,97695.91
2023-02-19T07:26:17.763Z,97691.53
2023-02-19T07:28:47.612Z,97699.88
2023-02-19T07:31:21.987Z,97696.59
2023-02-19T07:33:51.462Z,97692.84
2023-02-19T07:36:20.271Z,97698.25
2023-02-19T07:38:49.046Z,97695.38
2023-02-19T07:41:17.414Z,97695.28
2023-02-19T07:43:46.004Z,97690.13
2023-02-19T07:46:15.548Z,97673.81
2023-02-19T07:48:45.947Z,97669.75
2023-02-19T07:51:16.790Z,97668.53
2023-02-19T07:53:46.058Z,97666.19
2023-02-19T07:56:14.732Z,97660.13
2023-02-19T07:58:44.226Z,97663.19
2023-02-19T08:01:15.549Z,97657.63
2023-02-19T08:03:45.264Z,97648.47
2023-02-19T08:06:13.710Z,97651.72
2023-02-19T08:08:42.772Z,97648.91
2023-02-19T08:11:29.252Z,97647.78
2023-02-19T08:13:58.368Z,97660.06
2023-02-19T08:16:42.255Z,97658.25
2023-02-19T08:19:13.320Z,97661.19
2023-02-19T08:21:41.551Z,97658.53
2023-02-19T08:24:10.494Z,97656.22
2023-02-19T08:26:38.950Z,97660.38
2023-02-19T08:29:07.946Z,97664.72
2023-02-19T08:31:36.992Z,97664.25
2023-02-19T08:34:05.595Z,97667.97
2023-02-19T08:36:35.606Z,97668.41
2023-02-19T08:39:04.156Z,97664.03
2023-02-19T08:41:32.606Z,97673.88
2023-02-19T08:44:01.364Z,97690.03
2023-02-19T08:46:34.409Z,97695.69
2023-02-19T08:49:03.318Z,97682.78
2023-02-19T08:51:31.705Z,97686.22
2023-02-19T08:54:03.698Z,97686.84
2023-02-19T08:56:32.403Z,97681.31
2023-02-19T08:59:01.147Z,97690.28
2023-02-19T09:01:29.588Z,97681.94
2023-02-19T09:03:58.345Z,97682.63
2023-02-19T09:06:27.041Z,97693.19
2023-02-19T09:08:55.834Z,97696.66
2023-02-19T09:11:25.693Z,97692.91
2023-02-19T09:13:57.209Z,97693.63
2023-02-19T09:16:25.677Z,97693.28
2023-02-19T09:18:54.516Z,97697.34
2023-02-19T09:21:22.813Z,97707.47
2023-02-19T09:23:51.369Z,97704.03
2023-02-19T09:26:20.195Z,97704.03
2023-02-19T09:28:50.055Z,97713.91
2023-02-19T09:31:18.589Z,97709.50
2023-02-19T09:33:48.619Z,97702.50
2023-02-19T09:36:18.884Z,97713.81
2023-02-19T09:38:47.600Z,97725.03
2023-02-19T09:41:19.706Z,97715.78
2023-02-19T09:43:49.622Z,97717.69
2023-02-19T09:46:25.768Z,97722.28
2023-02-19T09:48:56.575Z,97733.16
2023-02-19T09:51:26.669Z,97731.88
2023-02-19T09:53:56.222Z,97743.50
2023-02-19T09:56:24.416Z,97754.06
2023-02-19T09:58:56.622Z,97751.63
2023-02-19T10:01:28.165Z,97761.63
2023-02-19T10:03:56.997Z,97759.53
2023-02-19T10:06:27.155Z,97764.56
2023-02-19T10:08:58.290Z,97766.44
2023-02-19T10:11:27.415Z,97777.13
2023-02-19T10:14:04.414Z,97769.25
2023-02-19T10:16:32.696Z,97776.53
2023-02-19T10:19:02.325Z,97779.44
2023-02-19T10:21:30.733Z,97785.91
2023-02-19T10:24:01.565Z,97791.94
2023-02-19T10:26:34.825Z,97795.06
2023-02-19T10:29:05.460Z,97802.09
2023-02-19T10:31:34.893Z,97812.13
2023-02-19T10:34:04.601Z,97819.00
2023-02-19T10:36:34.181Z,97817.13
2023-02-19T10:39:29.132Z,97819.66
2023-02-19T10:41:58.785Z,97823.44
2023-02-19T10:44:30.409Z,97814.34
2023-02-19T10:46:59.247Z,97816.53
2023-02-19T10:49:30.624Z,97813.78
2023-02-19T10:52:01.762Z,97808.06
2023-02-19T10:54:32.529Z,97822.94
2023-02-19T10:57:18.491Z,97826.44
2023-02-19T10:59:52.829Z,97831.19
2023-02-19T11:02:22.848Z,97835.72
2023-02-19T11:05:06.352Z,97844.91
2023-02-19T11:07:34.800Z,97858.06
2023-02-19T11:10:04.851Z,97856.97
2023-02-19T11:12:34.875Z,97858.09
2023-02-19T11:15:21.431Z,97863.06
2023-02-19T11:17:56.199Z,97869.72
2023-02-19T11:20:25.301Z,97877.03
2023-02-19T11:22:53.814Z,97886.19
2023-02-19T11:25:25.774Z,97888.97
2023-02-19T11:28:07.320Z,97883.66
2023-02-19T11:30:42.659Z,97883.31
2023-02-19T11:33:28.321Z,97881.81
2023-02-19T11:36:22.043Z,97889.91
2023-02-19T11:38:50.424Z,97890.84
2023-02-19T11:41:25.842Z,97894.88
2023-02-19T11:44:04.657Z,97898.66
2023-02-19T11:46:43.231Z,97907.81
2023-02-19T11:49:21.530Z,97915.13
2023-02-19T11:52:01.078Z,97913.28
2023-02-19T11:54:40.219Z,97926.06
2023-02-19T11:57:15.484Z,97929.94
2023-02-19T11:59:47.564Z,97941.72
2023-02-19T12:02:32.883Z,97947.94
2023-02-19T12:05:20.091Z,97955.47
2023-02-19T12:08:19.060Z,97947.19
2023-02-19T12:10:58.695Z,97952.03
2023-02-19T12:13:33.460Z,97950.25
2023-02-19T12:16:18.529Z,97966.44
2023-02-19T12:19:10.608Z,97954.56
2023-02-19T12:21:47.252Z,97964.66
2023-02-19T12:24:54.551Z,97969.25
2023-02-19T12:27:31.518Z,97973.88
2023-02-19T12:30:21.620Z,97977.78
2023-02-19T12:33:09.381Z,97978.25
2023-02-19T12:35:53.595Z,97977.22
2023-02-19T12:38:24.435Z,97983.19
2023-02-19T12:41:14.572Z,97980.53
2023-02-19T12:43:48.406Z,97989.34
2023-02-19T12:46:21.705Z,97986.84
2023-02-19T12:48:54.149Z,97997.91
2023-02-19T12:51:28.213Z,97997.22
2023-02-19T12:54:00.669Z,98001.34
2023-02-19T12:56:32.448Z,98004.09
2023-02-19T12:59:02.207Z,98006.69
2023-02-19T13:01:34.803Z,98016.47
2023-02-19T13:04:18.062Z,98020.53
2023-02-19T13:06:53.133Z,98025.47
2023-02-19T13:09:24.885Z,98023.78
2023-02-19T13:11:57.879Z,98020.66
2023-02-19T13:14:29.119Z,98028.06
2023-02-19T13:17:02.307Z,98032.72
2023-02-19T13:19:32.085Z,98043.16
2023-02-19T13:22:24.119Z,98042.75
2023-02-19T13:24:52.176Z,98058.16
2023-02-19T13:27:54.937Z,98055.41
2023-02-19T13:30:31.369Z,98058.97
2023-02-19T13:33:04.820Z,98055.69
2023-02-19T13:35:56.537Z,98064.88
2023-02-19T13:38:27.081Z,98076.75
2023-02-19T13:40:56.524Z,98078.72
2023-02-19T13:43:27.157Z,98088.00
2023-02-19T13:45:58.082Z,98084.44
2023-02-19T13:48:27.619Z,98089.13
2023-02-19T13:51:29.225Z,98092.69
2023-02-19T13:54:02.733Z,98098.16
2023-02-19T13:56:41.520Z,98097.50
2023-02-19T13:59:29.435Z,98097.41
2023-02-19T14:02:30.727Z,98105.09
2023-02-19T14:05:02.396Z,98103.16
2023-02-19T14:08:03.227Z,98108.59
2023-02-19T14:10:57.875Z,98120.53
2023-02-19T14:14:09.928Z,98116.69
2023-02-19T14:16:56.570Z,98123.00
2023-02-19T14:19:48.897Z,98121.56
2023-02-19T14:23:03.187Z,98129.50
2023-02-19T14:25:39.432Z,98133.97
2023-02-19T14:28:17.125Z,98138.06
2023-02-19T14:30:50.411Z,98140.88
2023-02-19T14:33:22.494Z,98138.47
2023-02-19T14:35:54.078Z,98151.03
2023-02-19T14:38:25.027Z,98154.88
2023-02-19T14:40:54.282Z,98157.25
2023-02-19T14:43:26.314Z,98162.19
2023-02-19T14:45:59.429Z,98169.84
2023-02-19T14:48:31.438Z,98168.22
2023-02-19T14:51:04.253Z,98163.84
2023-02-19T14:53:38.231Z,98171.50
2023-02-19T14:56:07.734Z,98172.84
2023-02-19T14:58:37.152Z,98175.00
2023-02-19T15:01:09.675Z,98174.78
2023-02-19T15:03:42.162Z,98174.22
2023-02-19T15:06:14.570Z,98178.84
2023-02-19T15:08:45.436Z,98182.91
2023-02-19T15:11:21.043Z,98170.09
2023-02-19T15:13:53.247Z,98196.00
2023-02-19T15:16:25.899Z,98190.00
2023-02-19T15:18:55.309Z,98194.31
2023-02-19T15:21:25.865Z,98208.72
2023-02-19T15:23:55.844Z,98212.06
2023-02-19T15:26:28.368Z,98215.88
2023-02-19T15:29:01.720Z,98212.09
2023-02-19T15:31:31.804Z,98218.63
2023-02-19T15:34:00.566Z,98214.16
2023-02-19T15:36:31.443Z,98217.50
2023-02-19T15:39:00.799Z,98218.94
2023-02-19T15:41:31.901Z,98229.16
2023-02-19T15:44:09.116Z,98237.63
2023-02-19T15:46:39.629Z,98243.31
2023-02-19T15:49:11.041Z,98254.38
2023-02-19T15:51:43.762Z,98261.28
2023-02-19T15:54:19.074Z,98266.50
2023-02-19T15:56:53.364Z,98272.72
2023-02-19T15:59:26.625Z,98273.53
2023-02-19T16:01:56.757Z,98276.78
2023-02-19T16:04:25.554Z,98288.03
2023-02-19T16:06:58.970Z,98285.47
2023-02-19T16:09:31.929Z,98295.59
2023-02-19T16:12:01.589Z,98301.41
2023-02-19T16:14:32.023Z,98310.66
2023-02-19T16:17:08.352Z,98306.38
2023-02-19T16:19:45.811Z,98311.94
2023-02-19T16:22:15.896Z,98316.97
2023-02-19T16:24:47.016Z,98323.13
2023-02-19T16:27:15.777Z,98331.19
2023-02-19T16:29:51.814Z,98332.28
2023-02-19T16:32:21.599Z,98331.88
2023-02-19T16:34:51.839Z,98344.28
2023-02-19T16:37:37.789Z,98340.75
2023-02-19T16:40:41.849Z,98355.13
2023-02-19T16:43:29.228Z,98364.66
2023-02-19T16:45:58.519Z,98374.44
2023-02-19T16:48:28.226Z,98382.19
2023-02-19T16:50:57.176Z,98392.13
2023-02-19T16:53:26.478Z,98392.63
2023-02-19T16:55:55.272Z,98392.94
2023-02-19T16:58:23.638Z,98405.88
2023-02-19T17:00:52.717Z,98407.06
2023-02-19T17:03:22.906Z,98417.22
2023-02-19T17:05:53.832Z,98420.03
2023-02-19T17:08:33.903Z,98420.16
2023-02-19T17:11:04.374Z,98421.06
2023-02-19T17:13:34.051Z,98423.75
2023-02-19T17:16:03.096Z,98431.47
2023-02-19T17:18:31.684Z,98431.19
2023-02-19T17:21:06.037Z,98433.19
2023-02-19T17:23:34.503Z,98438.94
2023-02-19T17:26:03.486Z,98436.69
2023-02-19T17:28:32.250Z,98435.66
2023-02-19T17:31:01.402Z,98434.38
2023-02-19T17:33:29.819Z,98441.91
2023-02-19T17:35:58.612Z,98446.41
2023-02-19T17:38:28.670Z,98445.41
2023-02-19T17:40:57.543Z,98453.59
2023-02-19T17:43:25.895Z,98462.47
2023-02-19T17:45:54.823Z,98476.44
2023-02-19T17:48:23.306Z,98482.53
2023-02-19T17:50:52.400Z,98485.50
2023-02-19T17:53:20.782Z,98489.84
2023-02-19T17:55:50.774Z,98480.34
2023-02-19T17:58:19.083Z,98502.97
2023-02-19T18:00:47.755Z,98495.97
2023-02-19T18:03:16.176Z,98498.88
2023-02-19T18:05:45.013Z,98500.97
2023-02-19T18:08:13.556Z,98507.88
2023-02-19T18:10:42.217Z,98504.00
2023-02-19T18:13:15.241Z,98508.31
2023-02-19T18:15:43.823Z,98524.09
2023-02-19T18:18:12.457Z,98521.19
2023-02-19T18:20:41.236Z,98524.47
2023-02-19T18:23:09.762Z,98536.44
2023-02-19T18:25:38.574Z,98544.59
2023-02-19T18:28:07.160Z,98538.91
2023-02-19T18:30:37.332Z,98534.66
2023-02-19T18:33:11.440Z,98544.09
2023-02-19T18:35:40.307Z,98549.38
2023-02-19T18:38:08.759Z,98539.84
2023-02-19T18:40:37.201Z,98537.38
2023-02-19T18:43:06.327Z,98533.25
2023-02-19T18:45:37.364Z,98544.56
2023-02-19T18:48:06.339Z,98559.28
2023-02-19T18:50:35.152Z,98555.16
2023-02-19T18:53:03.693Z,98551.88
2023-02-19T18:55:32.451Z,98554.16
2023-02-19T18:58:00.680Z,98565.91
2023-02-19T19:00:29.304Z,98559.25
2023-02-19T19:03:00.624Z,98576.38
2023-02-19T19:05:29.617Z,98568.13
2023-02-19T19:07:59.402Z,98569.38
2023-02-19T19:10:28.829Z,98576.34
2023-02-19T19:12:57.645Z,98578.31
2023-02-19T19:15:26.570Z,98584.81
2023-02-19T19:17:55.086Z,98579.06
2023-02-19T19:20:25.144Z,98584.91
2023-02-19T19:22:54.329Z,98588.72
2023-02-19T19:25:24.005Z,98595.22
2023-02-19T19:27:56.061Z,98598.88
2023-02-19T19:30:24.778Z,98603.09
2023-02-19T19:32:53.922Z,98609.34
2023-02-19T19:35:24.483Z,98608.28
2023-02-19T19:37:53.030Z,98604.53
2023-02-19T19:40:22.017Z,98607.47
2023-02-19T19:42:52.299Z,98610.00
2023-02-19T19:45:21.216Z,98624.25
2023-02-19T19:47:49.945Z,98617.41
2023-02-19T19:50:19.401Z,98614.69
2023-02-19T19:52:49.007Z,98617.25
2023-02-19T19:55:21.823Z,98624.38
2023-02-19T19:57:50.405Z,98612.44
2023-02-19T20:00:19.855Z,98623.53
2023-02-19T20:02:48.205Z,98630.00
2023-02-19T20:05:16.937Z,98628.13
2023-02-19T20:07:45.575Z,98619.63
2023-02-19T20:10:16.106Z,98619.66
2023-02-19T20:12:44.647Z,98618.44
2023-02-19T20:15:14.071Z,98616.81
2023-02-19T20:17:42.712Z,98620.91
2023-02-19T20:20:12.087Z,98618.69
2023-02-19T20:22:40.798Z,98632.22
2023-02-19T20:25:09.663Z,98635.63
2023-02-19T20:27:39.795Z,98631.19
2023-02-19T20:30:11.381Z,98633.19
2023-02-19T20:32:40.118Z,98638.34
2023-02-19T20:35:09.179Z,98632.94
2023-02-19T20:37:39.208Z,98637.78
2023-02-19T20:40:08.857Z,98639.22
2023-02-19T20:42:39.161Z,98633.19
2023-02-19T20:45:08.164Z,98642.38
2023-02-19T20:47:38.011Z,98656.16
2023-02-19T20:50:07.925Z,98647.44
2023-02-19T20:52:36.503Z,98659.72
2023-02-19T20:55:05.970Z,98659.25
2023-02-19T20:57:34.959Z,98663.47
2023-02-19T21:00:05.680Z,98664.50
2023-02-19T21:02:35.203Z,98670.19
2023-02-19T21:05:04.449Z,98675.84
2023-02-19T21:07:33.048Z,98686.56
2023-02-19T21:10:01.500Z,98691.88
2023-02-19T21:12:30.237Z,98690.81
2023-02-19T21:15:01.404Z,98694.81
2023-02-19T21:17:31.278Z,98704.16
2023-02-19T21:19:59.615Z,98702.63
2023-02-19T21:22:28.069Z,98714.28
2023-02-19T21:24:56.598Z,98714.28
2023-02-19T21:27:25.317Z,98718.06
2023-02-19T21:29:53.683Z,98714.75
2023-02-19T21:32:22.484Z,98720.13
2023-02-19T21:34:52.150Z,98722.06
2023-02-19T21:37:20.625Z,98725.19
2023-02-19T21:39:49.125Z,98726.47
2023-02-19T21:42:17.892Z,98729.84
2023-02-19T21:44:46.633Z,98730.72
2023-02-19T21:47:15.110Z,98726.50
2023-02-19T21:49:43.888Z,98724.91
2023-02-19T21:52:14.194Z,98729.66
2023-02-19T21:54:42.590Z,98729.69
2023-02-19T21:57:11.146Z,98733.06
2023-02-19T21:59:39.590Z,98725.09
2023-02-19T22:02:08.410Z,98744.09
2023-02-19T22:04:36.713Z,98737.41
2023-02-19T22:07:05.315Z,98737.03
2023-02-19T22:09:35.115Z,98740.44
2023-02-19T22:12:03.756Z,98739.53
2023-02-19T22:14:31.928Z,98744.03
2023-02-19T22:17:00.553Z,98738.88
2023-02-19T22:19:28.910Z,98744.28
2023-02-19T22:21:57.620Z,98753.13
2023-02-19T22:24:25.888Z,98758.00
2023-02-19T22:26:58.492Z,98753.94
2023-02-19T22:29:27.193Z,98756.28
2023-02-19T22:31:56.004Z,98766.81
2023-02-19T22:34:24.402Z,98772.53
2023-02-19T22:36:52.921Z,98775.47
2023-02-19T22:39:22.862Z,98777.13
2023-02-19T22:41:52.083Z,98771.13
2023-02-19T22:44:21.670Z,98769.75
2023-02-19T22:46:52.247Z,98776.22
2023-02-19T22:49:21.255Z,98773.00
2023-02-19T22:51:51.805Z,98766.47
2023-02-19T22:54:22.070Z,98780.78
2023-02-19T22:56:50.549Z,98776.88
2023-02-19T22:59:18.825Z,98781.03
2023-02-19T23:01:49.004Z,98782.00
2023-02-19T23:04:17.767Z,98790.44
2023-02-19T23:06:46.570Z,98794.41
2023-02-19T23:09:17.368Z,98805.72
2023-02-19T23:11:46.389Z,98803.72
2023-02-19T23:14:17.796Z,98812.09
2023-02-19T23:16:46.257Z,98808.94
2023-02-19T23:19:16.938Z,98810.38
2023-02-19T23:21:45.884Z,98813.25
2023-02-19T23:24:15.478Z,98814.25
2023-02-19T23:26:44.578Z,98812.47
2023-02-19T23:29:13.169Z,98808.03
2023-02-19T23:31:42.024Z,98820.13
2023-02-19T23:34:10.422Z,98811.66
2023-02-19T23:36:42.856Z,98814.75
2023-02-19T23:39:12.116Z,98820.00
2023-02-19T23:41:40.713Z,98812.94
2023-02-19T23:44:09.131Z,98814.06
2023-02-19T23:46:37.570Z,98815.75
2023-02-19T23:49:06.076Z,98808.28
2023-02-19T23:51:35.022Z,98798.09
2023-02-19T23:54:05.078Z,98804.03
2023-02-19T23:56:34.058Z,98802.22
2023-02-19T23:59:02.696Z,98797.63
